Time,TemperatureF,DewpointF,PressureIn,WindDirection,WindDirectionDegrees,WindSpeedMPH,WindSpeedGustMPH,Humidity,HourlyPrecipIn,Conditions,Clouds,dailyrainin,SolarRadiationWatts/m^2,SoftwareType,DateUTC
2013-01-10 00:02:00,19.0,16.0,-100.00,NNE,31,0.0,0.0,89,0.00,,,0.00,0.000000,,2013-01-10 07:02:00,
2013-01-10 01:32:00,19.0,15.0,-100.00,WNW,297,0.0,0.0,83,-99.99,,,0.00,0.000000,,2013-01-10 08:32:00,
2013-01-10 01:42:00,19.0,15.0,-100.00,WNW,297,0.0,0.0,83,-99.99,,,0.00,0.000000,,2013-01-10 08:42:00,
2013-01-10 01:52:00,19.0,15.0,-100.00,WNW,297,0.0,0.0,83,-99.99,,,0.00,0.000000,,2013-01-10 08:52:00,
2013-01-10 02:02:00,19.0,15.0,-100.00,WNW,297,0.0,0.0,83,-99.99,,,0.00,0.000000,,2013-01-10 09:02:00,
2013-01-10 02:32:00,18.0,14.0,-100.00,WNW,288,0.0,0.0,85,0.00,,,0.00,0.000000,,2013-01-10 09:32:00,
2013-01-10 02:43:00,18.0,14.0,-100.00,WNW,288,0.0,0.0,85,0.00,,,0.00,0.000000,,2013-01-10 09:43:00,
2013-01-10 02:52:00,18.0,14.0,-100.00,WNW,288,0.0,0.0,85,0.00,,,0.00,0.000000,,2013-01-10 09:52:00,
2013-01-10 03:02:00,18.0,14.0,-100.00,WNW,288,0.0,0.0,85,0.00,,,0.00,0.000000,,2013-01-10 10:02:00,
2013-01-10 03:33:00,18.0,14.0,-100.00,SW,235,0.0,0.0,85,0.00,,,0.00,0.000000,,2013-01-10 10:33:00,
2013-01-10 03:42:00,18.0,14.0,-100.00,SW,235,0.0,0.0,85,0.00,,,0.00,0.000000,,2013-01-10 10:42:00,
2013-01-10 03:52:00,18.0,14.0,-100.00,SW,235,0.0,0.0,85,0.00,,,0.00,0.000000,,2013-01-10 10:52:00,
2013-01-10 04:02:00,18.0,14.0,-100.00,SW,235,0.0,0.0,85,0.00,,,0.00,0.000000,,2013-01-10 11:02:00,
2013-01-10 04:33:00,21.0,15.0,-100.00,NNE,16,0.0,0.0,77,0.00,,,0.00,0.000000,,2013-01-10 11:33:00,
2013-01-10 04:43:00,21.0,15.0,-100.00,NNE,16,0.0,0.0,77,0.00,,,0.00,0.000000,,2013-01-10 11:43:00,
2013-01-10 04:53:00,21.0,15.0,-100.00,NNE,16,0.0,0.0,77,0.00,,,0.00,0.000000,,2013-01-10 11:53:00,
2013-01-10 05:02:00,21.0,15.0,-100.00,NNE,16,0.0,0.0,77,0.00,,,0.00,0.000000,,2013-01-10 12:02:00,
2013-01-10 07:33:00,32.0,13.0,-100.00,SW,219,7.0,11.0,45,-99.99,,,0.00,0.000000,,2013-01-10 14:33:00,
2013-01-10 07:43:00,32.0,13.0,-100.00,SW,219,7.0,11.0,45,-99.99,,,0.00,0.000000,,2013-01-10 14:43:00,
2013-01-10 07:53:00,32.0,13.0,-100.00,SW,219,7.0,11.0,45,-99.99,,,0.00,0.000000,,2013-01-10 14:53:00,
2013-01-10 08:03:00,32.0,13.0,-100.00,SW,219,7.0,11.0,45,-99.99,,,0.00,0.000000,,2013-01-10 15:03:00,
2013-01-10 08:33:00,32.0,13.0,-100.00,SW,233,6.0,11.0,44,0.00,,,0.00,4.000000,,2013-01-10 15:33:00,
2013-01-10 08:43:00,32.0,13.0,-100.00,SW,233,6.0,11.0,44,0.00,,,0.00,4.000000,,2013-01-10 15:43:00,
2013-01-10 08:53:00,32.0,13.0,-100.00,SW,233,6.0,11.0,44,0.00,,,0.00,4.000000,,2013-01-10 15:53:00,
2013-01-10 09:02:00,32.0,13.0,-100.00,SW,233,6.0,11.0,44,0.00,,,0.00,4.000000,,2013-01-10 16:02:00,
2013-01-10 09:33:00,36.0,13.0,-100.00,SW,219,11.0,19.0,38,0.00,,,0.00,86.000000,,2013-01-10 16:33:00,
2013-01-10 09:43:00,36.0,13.0,-100.00,SW,219,11.0,19.0,38,0.00,,,0.00,86.000000,,2013-01-10 16:43:00,
2013-01-10 09:53:00,36.0,13.0,-100.00,SW,219,11.0,19.0,38,0.00,,,0.00,86.000000,,2013-01-10 16:53:00,
2013-01-10 10:02:00,36.0,13.0,-100.00,SW,219,11.0,19.0,38,0.00,,,0.00,86.000000,,2013-01-10 17:02:00,
2013-01-10 10:33:00,39.0,15.0,-100.00,SW,214,12.0,22.0,37,0.00,,,0.00,335.000000,,2013-01-10 17:33:00,
2013-01-10 10:43:00,39.0,15.0,-100.00,SW,214,12.0,22.0,37,0.00,,,0.00,335.000000,,2013-01-10 17:43:00,
2013-01-10 10:53:00,39.0,15.0,-100.00,SW,214,12.0,22.0,37,0.00,,,0.00,335.000000,,2013-01-10 17:53:00,
2013-01-10 11:03:00,39.0,15.0,-100.00,SW,214,12.0,22.0,37,0.00,,,0.00,335.000000,,2013-01-10 18:03:00,
2013-01-10 11:33:00,40.0,16.0,-100.00,SW,215,11.0,23.0,37,0.00,,,0.00,464.000000,,2013-01-10 18:33:00,
2013-01-10 11:43:00,40.0,16.0,-100.00,SW,215,11.0,23.0,37,0.00,,,0.00,464.000000,,2013-01-10 18:43:00,
2013-01-10 11:53:00,40.0,16.0,-100.00,SW,215,11.0,23.0,37,0.00,,,0.00,464.000000,,2013-01-10 18:53:00,
2013-01-10 12:02:00,40.0,16.0,-100.00,SW,215,11.0,23.0,37,0.00,,,0.00,464.000000,,2013-01-10 19:02:00,
2013-01-10 12:33:00,41.0,17.0,-100.00,SW,214,12.0,24.0,37,0.00,,,-99.99,529.000000,,2013-01-10 19:33:00,
2013-01-10 12:43:00,41.0,17.0,-100.00,SW,214,12.0,24.0,37,0.00,,,-99.99,529.000000,,2013-01-10 19:43:00,
2013-01-10 12:53:00,41.0,17.0,-100.00,SW,214,12.0,24.0,37,0.00,,,-99.99,529.000000,,2013-01-10 19:53:00,
2013-01-10 13:02:00,41.0,17.0,-100.00,SW,214,12.0,24.0,37,0.00,,,-99.99,529.000000,,2013-01-10 20:02:00,
2013-01-10 13:33:00,39.0,16.0,-100.00,SSW,211,14.0,29.0,39,0.00,,,0.00,477.000000,,2013-01-10 20:33:00,
2013-01-10 13:43:00,39.0,16.0,-100.00,SSW,211,14.0,29.0,39,0.00,,,0.00,477.000000,,2013-01-10 20:43:00,
2013-01-10 13:53:00,39.0,16.0,-100.00,SSW,211,14.0,29.0,39,0.00,,,0.00,477.000000,,2013-01-10 20:53:00,
2013-01-10 14:03:00,39.0,16.0,-100.00,SSW,211,14.0,29.0,39,0.00,,,0.00,477.000000,,2013-01-10 21:03:00,
2013-01-10 14:33:00,37.0,17.0,-100.00,SW,215,14.0,28.0,44,0.00,,,0.00,181.000000,,2013-01-10 21:33:00,
2013-01-10 14:43:00,37.0,17.0,-100.00,SW,215,14.0,28.0,44,0.00,,,0.00,181.000000,,2013-01-10 21:43:00,
2013-01-10 14:53:00,37.0,17.0,-100.00,SW,215,14.0,28.0,44,0.00,,,0.00,181.000000,,2013-01-10 21:53:00,
2013-01-10 15:03:00,37.0,17.0,-100.00,SW,215,14.0,28.0,44,0.00,,,0.00,181.000000,,2013-01-10 22:03:00,
2013-01-10 15:34:00,36.0,18.0,-100.00,SSW,208,13.0,27.0,48,0.00,,,0.00,99.000000,,2013-01-10 22:34:00,
2013-01-10 15:44:00,36.0,18.0,-100.00,SSW,208,13.0,27.0,48,0.00,,,0.00,99.000000,,2013-01-10 22:44:00,
2013-01-10 16:02:00,36.0,18.0,-100.00,SSW,208,13.0,27.0,48,0.00,,,0.00,99.000000,,2013-01-10 23:02:00,
2013-01-10 16:33:00,36.0,18.0,-100.00,SSW,207,11.0,27.0,48,0.00,,,-99.99,93.000000,,2013-01-10 23:33:00,
2013-01-10 16:43:00,36.0,18.0,-100.00,SSW,207,11.0,27.0,48,0.00,,,-99.99,93.000000,,2013-01-10 23:43:00,
2013-01-10 16:53:00,36.0,18.0,-100.00,SSW,207,11.0,27.0,48,0.00,,,-99.99,93.000000,,2013-01-10 23:53:00,
2013-01-10 17:02:00,36.0,18.0,-100.00,SSW,207,11.0,27.0,48,0.00,,,-99.99,93.000000,,2013-01-11 00:02:00,
2013-01-10 17:33:00,35.0,16.0,-100.00,SSW,205,15.0,31.0,46,0.00,,,0.00,62.000000,,2013-01-11 00:33:00,
2013-01-10 17:43:00,35.0,16.0,-100.00,SSW,205,15.0,31.0,46,0.00,,,0.00,62.000000,,2013-01-11 00:43:00,
2013-01-10 17:53:00,35.0,16.0,-100.00,SSW,205,15.0,31.0,46,0.00,,,0.00,62.000000,,2013-01-11 00:53:00,
2013-01-10 18:02:00,35.0,16.0,-100.00,SSW,205,15.0,31.0,46,0.00,,,0.00,62.000000,,2013-01-11 01:02:00,
2013-01-10 18:34:00,33.0,17.0,-100.00,SW,217,15.0,28.0,51,0.00,,,0.00,9.000000,,2013-01-11 01:34:00,
2013-01-10 18:43:00,33.0,17.0,-100.00,SW,217,15.0,28.0,51,0.00,,,0.00,9.000000,,2013-01-11 01:43:00,
2013-01-10 18:53:00,33.0,17.0,-100.00,SW,217,15.0,28.0,51,0.00,,,0.00,9.000000,,2013-01-11 01:53:00,
2013-01-10 19:02:00,33.0,17.0,-100.00,SW,217,15.0,28.0,51,0.00,,,0.00,9.000000,,2013-01-11 02:02:00,
2013-01-10 19:33:00,32.0,21.0,-100.00,SSW,208,16.0,34.0,63,0.00,,,0.00,0.000000,,2013-01-11 02:33:00,
2013-01-10 19:43:00,32.0,21.0,-100.00,SSW,208,16.0,34.0,63,0.00,,,0.00,0.000000,,2013-01-11 02:43:00,
2013-01-10 19:54:00,32.0,21.0,-100.00,SSW,208,16.0,34.0,63,0.00,,,0.00,0.000000,,2013-01-11 02:54:00,
2013-01-10 20:02:00,32.0,21.0,-100.00,SSW,208,16.0,34.0,63,0.00,,,0.00,0.000000,,2013-01-11 03:02:00,
2013-01-10 20:33:00,30.0,22.0,-100.00,SSW,208,12.0,25.0,72,0.00,,,0.00,0.000000,,2013-01-11 03:33:00,
2013-01-10 20:43:00,30.0,22.0,-100.00,SSW,208,12.0,25.0,72,0.00,,,0.00,0.000000,,2013-01-11 03:43:00,
2013-01-10 20:53:00,30.0,22.0,-100.00,SSW,208,12.0,25.0,72,0.00,,,0.00,0.000000,,2013-01-11 03:53:00,
2013-01-10 21:02:00,30.0,22.0,-100.00,SSW,208,12.0,25.0,72,0.00,,,0.00,0.000000,,2013-01-11 04:02:00,
2013-01-10 21:33:00,30.0,25.0,-100.00,SW,216,12.0,29.0,80,0.00,,,0.00,0.000000,,2013-01-11 04:33:00,
2013-01-10 21:43:00,30.0,25.0,-100.00,SW,216,12.0,29.0,80,0.00,,,0.00,0.000000,,2013-01-11 04:43:00,
2013-01-10 21:53:00,30.0,25.0,-100.00,SW,216,12.0,29.0,80,0.00,,,0.00,0.000000,,2013-01-11 04:53:00,
2013-01-10 22:03:00,30.0,25.0,-100.00,SW,216,12.0,29.0,80,0.00,,,0.00,0.000000,,2013-01-11 05:03:00,
2013-01-10 22:33:00,27.0,24.0,-100.00,SW,235,14.0,31.0,88,0.00,,,0.00,0.000000,,2013-01-11 05:33:00,
2013-01-10 22:43:00,27.0,24.0,-100.00,SW,235,14.0,31.0,88,0.00,,,0.00,0.000000,,2013-01-11 05:43:00,
2013-01-10 22:52:00,27.0,24.0,-100.00,SW,235,14.0,31.0,88,0.00,,,0.00,0.000000,,2013-01-11 05:52:00,
2013-01-10 23:02:00,27.0,24.0,-100.00,SW,235,14.0,31.0,88,0.00,,,0.00,0.000000,,2013-01-11 06:02:00,
2013-01-10 23:32:00,24.0,20.0,-100.00,WSW,248,12.0,29.0,84,0.00,,,0.00,0.000000,,2013-01-11 06:32:00,
2013-01-10 23:42:00,24.0,20.0,-100.00,WSW,248,12.0,29.0,84,0.00,,,0.00,0.000000,,2013-01-11 06:42:00,
2013-01-10 23:52:00,24.0,20.0,-100.00,WSW,248,12.0,29.0,84,0.00,,,0.00,0.000000,,2013-01-11 06:52:00,